sensor_id;sensor_type;location;lat;lon;timestamp;P1;durP1;ratioP1;P2;durP2;ratioP2
3847;SDS011;1939;48.720;9.166;2022-10-19T00:00:26;26.00;;;13.43;;
3847;SDS011;1939;48.720;9.166;2022-10-19T00:02:51;28.87;;;12.00;;
3847;SDS011;1939;48.720;9.166;2022-10-19T00:05:16;22.07;;;13.10;;
3847;SDS011;1939;48.720;9.166;2022-10-19T00:07:42;27.47;;;13.63;;
3847;SDS011;1939;48.720;9.166;2022-10-19T00:10:07;21.60;;;13.67;;
3847;SDS011;1939;48.720;9.166;2022-10-19T00:12:32;21.13;;;12.93;;
3847;SDS011;1939;48.720;9.166;2022-10-19T00:14:58;19.53;;;11.37;;
3847;SDS011;1939;48.720;9.166;2022-10-19T00:17:23;20.67;;;11.77;;
3847;SDS011;1939;48.720;9.166;2022-10-19T00:19:48;29.50;;;13.53;;
3847;SDS011;1939;48.720;9.166;2022-10-19T00:22:13;31.23;;;14.60;;
3847;SDS011;1939;48.720;9.166;2022-10-19T00:24:39;22.73;;;12.67;;
3847;SDS011;1939;48.720;9.166;2022-10-19T00:27:04;22.23;;;13.40;;
3847;SDS011;1939;48.720;9.166;2022-10-19T00:29:30;16.67;;;11.57;;
3847;SDS011;1939;48.720;9.166;2022-10-19T00:31:55;27.17;;;12.23;;
3847;SDS011;1939;48.720;9.166;2022-10-19T00:34:20;21.20;;;13.33;;
3847;SDS011;1939;48.720;9.166;2022-10-19T00:36:46;20.43;;;12.53;;
3847;SDS011;1939;48.720;9.166;2022-10-19T00:39:12;21.60;;;12.80;;
3847;SDS011;1939;48.720;9.166;2022-10-19T00:41:38;20.70;;;13.47;;
3847;SDS011;1939;48.720;9.166;2022-10-19T00:46:49;24.80;;;12.50;;
3847;SDS011;1939;48.720;9.166;2022-10-19T00:52:10;28.63;;;13.37;;
3847;SDS011;1939;48.720;9.166;2022-10-19T00:54:49;18.80;;;11.40;;
3847;SDS011;1939;48.720;9.166;2022-10-19T00:57:15;31.23;;;15.23;;
3847;SDS011;1939;48.720;9.166;2022-10-19T00:59:41;23.73;;;14.23;;
3847;SDS011;1939;48.720;9.166;2022-10-19T01:02:07;23.23;;;12.33;;
3847;SDS011;1939;48.720;9.166;2022-10-19T01:04:34;18.10;;;10.70;;
3847;SDS011;1939;48.720;9.166;2022-10-19T01:06:59;19.90;;;11.17;;
3847;SDS011;1939;48.720;9.166;2022-10-19T01:09:25;15.30;;;10.00;;
3847;SDS011;1939;48.720;9.166;2022-10-19T01:21:54;24.10;;;11.90;;
3847;SDS011;1939;48.720;9.166;2022-10-19T01:27:05;34.10;;;15.27;;
3847;SDS011;1939;48.720;9.166;2022-10-19T01:32:22;63.97;;;17.10;;
3847;SDS011;1939;48.720;9.166;2022-10-19T01:34:51;41.47;;;15.00;;
3847;SDS011;1939;48.720;9.166;2022-10-19T01:39:53;122.50;;;21.47;;
3847;SDS011;1939;48.720;9.166;2022-10-19T01:42:27;87.63;;;18.00;;
3847;SDS011;1939;48.720;9.166;2022-10-19T01:44:55;89.93;;;18.60;;
3847;SDS011;1939;48.720;9.166;2022-10-19T01:47:34;74.53;;;20.30;;
3847;SDS011;1939;48.720;9.166;2022-10-19T01:50:04;142.87;;;19.27;;
3847;SDS011;1939;48.720;9.166;2022-10-19T01:52:31;111.93;;;19.60;;
3847;SDS011;1939;48.720;9.166;2022-10-19T01:54:57;146.17;;;21.13;;
3847;SDS011;1939;48.720;9.166;2022-10-19T01:57:25;52.53;;;18.20;;
3847;SDS011;1939;48.720;9.166;2022-10-19T01:59:52;56.07;;;18.17;;
3847;SDS011;1939;48.720;9.166;2022-10-19T02:02:18;58.63;;;19.27;;
3847;SDS011;1939;48.720;9.166;2022-10-19T02:04:44;79.27;;;19.47;;
3847;SDS011;1939;48.720;9.166;2022-10-19T02:07:10;70.03;;;21.10;;
3847;SDS011;1939;48.720;9.166;2022-10-19T02:09:36;104.93;;;23.57;;
3847;SDS011;1939;48.720;9.166;2022-10-19T02:12:02;61.83;;;19.57;;
3847;SDS011;1939;48.720;9.166;2022-10-19T02:17:34;147.80;;;23.53;;
3847;SDS011;1939;48.720;9.166;2022-10-19T02:20:01;88.17;;;19.70;;
3847;SDS011;1939;48.720;9.166;2022-10-19T02:22:26;69.13;;;23.37;;
3847;SDS011;1939;48.720;9.166;2022-10-19T02:24:52;118.80;;;22.00;;
3847;SDS011;1939;48.720;9.166;2022-10-19T02:27:17;265.93;;;32.97;;
3847;SDS011;1939;48.720;9.166;2022-10-19T02:29:43;113.27;;;22.10;;
3847;SDS011;1939;48.720;9.166;2022-10-19T02:32:08;203.37;;;26.27;;
3847;SDS011;1939;48.720;9.166;2022-10-19T02:34:34;102.20;;;23.67;;
3847;SDS011;1939;48.720;9.166;2022-10-19T02:37:00;185.50;;;26.93;;
3847;SDS011;1939;48.720;9.166;2022-10-19T02:39:25;103.07;;;24.33;;
3847;SDS011;1939;48.720;9.166;2022-10-19T02:41:53;173.67;;;26.50;;
3847;SDS011;1939;48.720;9.166;2022-10-19T02:44:22;231.37;;;27.07;;
3847;SDS011;1939;48.720;9.166;2022-10-19T02:46:53;87.77;;;21.27;;
3847;SDS011;1939;48.720;9.166;2022-10-19T02:49:19;132.57;;;20.83;;
3847;SDS011;1939;48.720;9.166;2022-10-19T02:51:58;60.83;;;17.90;;
3847;SDS011;1939;48.720;9.166;2022-10-19T02:54:24;66.83;;;17.17;;
3847;SDS011;1939;48.720;9.166;2022-10-19T02:56:49;119.57;;;21.07;;
3847;SDS011;1939;48.720;9.166;2022-10-19T02:59:14;59.17;;;17.50;;
3847;SDS011;1939;48.720;9.166;2022-10-19T03:01:39;243.57;;;27.70;;
3847;SDS011;1939;48.720;9.166;2022-10-19T03:04:04;156.27;;;23.47;;
3847;SDS011;1939;48.720;9.166;2022-10-19T03:06:30;80.43;;;18.87;;
3847;SDS011;1939;48.720;9.166;2022-10-19T03:08:55;72.00;;;23.07;;
3847;SDS011;1939;48.720;9.166;2022-10-19T03:11:20;236.03;;;26.27;;
3847;SDS011;1939;48.720;9.166;2022-10-19T03:13:45;129.77;;;23.10;;
3847;SDS011;1939;48.720;9.166;2022-10-19T03:16:11;182.40;;;26.00;;
3847;SDS011;1939;48.720;9.166;2022-10-19T03:18:49;252.83;;;32.27;;
3847;SDS011;1939;48.720;9.166;2022-10-19T03:21:15;210.53;;;27.23;;
3847;SDS011;1939;48.720;9.166;2022-10-19T03:23:40;144.33;;;26.10;;
3847;SDS011;1939;48.720;9.166;2022-10-19T03:26:18;123.67;;;25.17;;
3847;SDS011;1939;48.720;9.166;2022-10-19T03:28:43;80.77;;;25.47;;
3847;SDS011;1939;48.720;9.166;2022-10-19T03:31:08;71.27;;;24.30;;
3847;SDS011;1939;48.720;9.166;2022-10-19T03:33:33;252.00;;;31.23;;
3847;SDS011;1939;48.720;9.166;2022-10-19T03:36:12;80.30;;;22.10;;
3847;SDS011;1939;48.720;9.166;2022-10-19T03:38:37;87.07;;;24.30;;
3847;SDS011;1939;48.720;9.166;2022-10-19T03:41:04;103.83;;;24.50;;
3847;SDS011;1939;48.720;9.166;2022-10-19T03:43:30;264.70;;;30.37;;
3847;SDS011;1939;48.720;9.166;2022-10-19T03:45:55;228.77;;;28.70;;
3847;SDS011;1939;48.720;9.166;2022-10-19T03:48:20;475.13;;;41.60;;
3847;SDS011;1939;48.720;9.166;2022-10-19T03:50:45;387.37;;;37.17;;
3847;SDS011;1939;48.720;9.166;2022-10-19T03:53:10;97.30;;;26.23;;
3847;SDS011;1939;48.720;9.166;2022-10-19T03:55:36;248.90;;;29.30;;
3847;SDS011;1939;48.720;9.166;2022-10-19T03:58:01;376.67;;;38.77;;
3847;SDS011;1939;48.720;9.166;2022-10-19T04:00:26;105.93;;;25.70;;
3847;SDS011;1939;48.720;9.166;2022-10-19T04:02:51;109.93;;;25.77;;
3847;SDS011;1939;48.720;9.166;2022-10-19T04:05:17;187.97;;;26.30;;
3847;SDS011;1939;48.720;9.166;2022-10-19T04:07:42;403.63;;;40.23;;
3847;SDS011;1939;48.720;9.166;2022-10-19T04:10:07;387.60;;;37.20;;
3847;SDS011;1939;48.720;9.166;2022-10-19T04:12:32;279.23;;;31.43;;
3847;SDS011;1939;48.720;9.166;2022-10-19T04:14:58;121.97;;;27.60;;
3847;SDS011;1939;48.720;9.166;2022-10-19T04:17:23;343.83;;;34.73;;
3847;SDS011;1939;48.720;9.166;2022-10-19T04:19:49;382.47;;;40.77;;
3847;SDS011;1939;48.720;9.166;2022-10-19T04:22:14;154.17;;;27.07;;
3847;SDS011;1939;48.720;9.166;2022-10-19T04:24:39;80.17;;;22.07;;
3847;SDS011;1939;48.720;9.166;2022-10-19T04:27:04;83.73;;;23.77;;
3847;SDS011;1939;48.720;9.166;2022-10-19T04:29:30;57.80;;;23.73;;
3847;SDS011;1939;48.720;9.166;2022-10-19T04:31:55;57.37;;;21.30;;
3847;SDS011;1939;48.720;9.166;2022-10-19T04:34:20;45.67;;;20.80;;
3847;SDS011;1939;48.720;9.166;2022-10-19T04:36:46;49.47;;;21.40;;
3847;SDS011;1939;48.720;9.166;2022-10-19T04:39:11;79.30;;;24.80;;
3847;SDS011;1939;48.720;9.166;2022-10-19T04:41:36;76.60;;;24.13;;
3847;SDS011;1939;48.720;9.166;2022-10-19T04:44:02;51.63;;;22.93;;
3847;SDS011;1939;48.720;9.166;2022-10-19T04:46:28;51.67;;;24.13;;
3847;SDS011;1939;48.720;9.166;2022-10-19T04:48:54;52.37;;;25.13;;
3847;SDS011;1939;48.720;9.166;2022-10-19T04:51:19;44.53;;;23.20;;
3847;SDS011;1939;48.720;9.166;2022-10-19T04:53:45;47.90;;;23.00;;
3847;SDS011;1939;48.720;9.166;2022-10-19T04:56:12;51.70;;;25.03;;
3847;SDS011;1939;48.720;9.166;2022-10-19T04:58:38;42.20;;;23.33;;
3847;SDS011;1939;48.720;9.166;2022-10-19T05:03:33;55.47;;;24.40;;
3847;SDS011;1939;48.720;9.166;2022-10-19T05:05:59;58.20;;;23.70;;
3847;SDS011;1939;48.720;9.166;2022-10-19T05:08:24;68.27;;;25.83;;
3847;SDS011;1939;48.720;9.166;2022-10-19T05:10:49;93.57;;;26.63;;
3847;SDS011;1939;48.720;9.166;2022-10-19T05:13:14;76.47;;;32.60;;
3847;SDS011;1939;48.720;9.166;2022-10-19T05:15:40;69.27;;;25.50;;
3847;SDS011;1939;48.720;9.166;2022-10-19T05:18:05;62.53;;;25.87;;
3847;SDS011;1939;48.720;9.166;2022-10-19T05:20:30;63.33;;;26.40;;
3847;SDS011;1939;48.720;9.166;2022-10-19T05:22:55;140.17;;;27.73;;
3847;SDS011;1939;48.720;9.166;2022-10-19T05:25:21;130.93;;;30.93;;
3847;SDS011;1939;48.720;9.166;2022-10-19T05:27:49;86.43;;;28.70;;
3847;SDS011;1939;48.720;9.166;2022-10-19T05:30:14;143.37;;;28.83;;
3847;SDS011;1939;48.720;9.166;2022-10-19T05:32:40;172.83;;;30.60;;
3847;SDS011;1939;48.720;9.166;2022-10-19T05:35:05;83.67;;;26.00;;
3847;SDS011;1939;48.720;9.166;2022-10-19T05:37:30;92.20;;;26.70;;
3847;SDS011;1939;48.720;9.166;2022-10-19T05:39:56;229.47;;;32.97;;
3847;SDS011;1939;48.720;9.166;2022-10-19T05:42:21;135.23;;;27.70;;
3847;SDS011;1939;48.720;9.166;2022-10-19T05:44:46;159.63;;;28.60;;
3847;SDS011;1939;48.720;9.166;2022-10-19T05:47:11;223.70;;;30.00;;
3847;SDS011;1939;48.720;9.166;2022-10-19T05:49:36;155.80;;;29.50;;
3847;SDS011;1939;48.720;9.166;2022-10-19T05:52:02;235.47;;;28.87;;
3847;SDS011;1939;48.720;9.166;2022-10-19T05:54:27;198.33;;;28.87;;
3847;SDS011;1939;48.720;9.166;2022-10-19T05:56:52;159.40;;;25.73;;
3847;SDS011;1939;48.720;9.166;2022-10-19T05:59:18;129.47;;;27.23;;
3847;SDS011;1939;48.720;9.166;2022-10-19T06:01:44;138.97;;;27.63;;
3847;SDS011;1939;48.720;9.166;2022-10-19T06:04:11;141.93;;;28.13;;
3847;SDS011;1939;48.720;9.166;2022-10-19T06:06:38;109.27;;;25.60;;
3847;SDS011;1939;48.720;9.166;2022-10-19T06:09:03;122.67;;;25.63;;
3847;SDS011;1939;48.720;9.166;2022-10-19T06:14:20;213.67;;;29.13;;
3847;SDS011;1939;48.720;9.166;2022-10-19T06:16:45;205.30;;;28.67;;
3847;SDS011;1939;48.720;9.166;2022-10-19T06:19:10;208.53;;;27.90;;
3847;SDS011;1939;48.720;9.166;2022-10-19T06:21:35;147.90;;;24.53;;
3847;SDS011;1939;48.720;9.166;2022-10-19T06:24:02;160.67;;;26.93;;
3847;SDS011;1939;48.720;9.166;2022-10-19T06:26:28;261.50;;;32.33;;
3847;SDS011;1939;48.720;9.166;2022-10-19T06:28:54;303.00;;;38.80;;
3847;SDS011;1939;48.720;9.166;2022-10-19T06:31:20;173.47;;;29.07;;
3847;SDS011;1939;48.720;9.166;2022-10-19T06:33:45;266.57;;;30.73;;
3847;SDS011;1939;48.720;9.166;2022-10-19T06:36:11;198.97;;;29.63;;
3847;SDS011;1939;48.720;9.166;2022-10-19T06:38:37;184.23;;;29.70;;
3847;SDS011;1939;48.720;9.166;2022-10-19T06:41:03;80.00;;;25.27;;
3847;SDS011;1939;48.720;9.166;2022-10-19T06:43:28;128.93;;;28.03;;
3847;SDS011;1939;48.720;9.166;2022-10-19T06:45:53;98.93;;;24.70;;
3847;SDS011;1939;48.720;9.166;2022-10-19T06:48:19;70.70;;;23.77;;
3847;SDS011;1939;48.720;9.166;2022-10-19T06:50:44;159.63;;;27.73;;
3847;SDS011;1939;48.720;9.166;2022-10-19T06:53:09;69.43;;;23.30;;
3847;SDS011;1939;48.720;9.166;2022-10-19T06:55:35;146.20;;;27.97;;
3847;SDS011;1939;48.720;9.166;2022-10-19T06:58:01;101.20;;;22.50;;
3847;SDS011;1939;48.720;9.166;2022-10-19T07:00:27;87.00;;;20.63;;
3847;SDS011;1939;48.720;9.166;2022-10-19T07:02:52;64.23;;;22.30;;
3847;SDS011;1939;48.720;9.166;2022-10-19T07:05:18;45.30;;;20.63;;
3847;SDS011;1939;48.720;9.166;2022-10-19T07:07:43;48.30;;;21.37;;
3847;SDS011;1939;48.720;9.166;2022-10-19T07:10:09;43.43;;;21.07;;
3847;SDS011;1939;48.720;9.166;2022-10-19T07:12:34;39.33;;;20.20;;
3847;SDS011;1939;48.720;9.166;2022-10-19T07:15:00;35.00;;;19.80;;
3847;SDS011;1939;48.720;9.166;2022-10-19T07:17:25;36.83;;;18.43;;
3847;SDS011;1939;48.720;9.166;2022-10-19T07:19:50;42.33;;;21.13;;
3847;SDS011;1939;48.720;9.166;2022-10-19T07:22:16;38.37;;;21.00;;
3847;SDS011;1939;48.720;9.166;2022-10-19T07:24:41;43.40;;;19.37;;
3847;SDS011;1939;48.720;9.166;2022-10-19T07:27:06;37.40;;;19.87;;
3847;SDS011;1939;48.720;9.166;2022-10-19T07:29:31;43.67;;;21.30;;
3847;SDS011;1939;48.720;9.166;2022-10-19T07:31:57;41.40;;;20.63;;
3847;SDS011;1939;48.720;9.166;2022-10-19T07:34:22;42.33;;;19.70;;
3847;SDS011;1939;48.720;9.166;2022-10-19T07:36:47;41.90;;;18.97;;
3847;SDS011;1939;48.720;9.166;2022-10-19T07:39:13;37.37;;;18.80;;
3847;SDS011;1939;48.720;9.166;2022-10-19T07:41:43;38.43;;;18.13;;
3847;SDS011;1939;48.720;9.166;2022-10-19T07:44:12;32.27;;;17.97;;
3847;SDS011;1939;48.720;9.166;2022-10-19T07:46:38;36.27;;;18.10;;
3847;SDS011;1939;48.720;9.166;2022-10-19T07:49:11;32.47;;;16.50;;
3847;SDS011;1939;48.720;9.166;2022-10-19T07:51:36;33.13;;;19.10;;
3847;SDS011;1939;48.720;9.166;2022-10-19T07:54:02;30.37;;;15.20;;
3847;SDS011;1939;48.720;9.166;2022-10-19T07:56:28;31.10;;;17.90;;
3847;SDS011;1939;48.720;9.166;2022-10-19T07:58:54;33.63;;;16.23;;
3847;SDS011;1939;48.720;9.166;2022-10-19T08:01:21;26.10;;;16.67;;
3847;SDS011;1939;48.720;9.166;2022-10-19T08:03:47;30.13;;;17.17;;
3847;SDS011;1939;48.720;9.166;2022-10-19T08:06:13;24.77;;;14.83;;
3847;SDS011;1939;48.720;9.166;2022-10-19T08:08:40;31.90;;;16.60;;
3847;SDS011;1939;48.720;9.166;2022-10-19T08:11:10;31.20;;;15.00;;
3847;SDS011;1939;48.720;9.166;2022-10-19T08:13:35;26.17;;;17.50;;
3847;SDS011;1939;48.720;9.166;2022-10-19T08:16:01;32.20;;;17.80;;
3847;SDS011;1939;48.720;9.166;2022-10-19T08:18:27;28.70;;;14.80;;
3847;SDS011;1939;48.720;9.166;2022-10-19T08:20:52;23.67;;;14.10;;
3847;SDS011;1939;48.720;9.166;2022-10-19T08:23:27;24.60;;;15.07;;
3847;SDS011;1939;48.720;9.166;2022-10-19T08:25:56;25.17;;;14.87;;
3847;SDS011;1939;48.720;9.166;2022-10-19T08:28:21;22.37;;;14.37;;
3847;SDS011;1939;48.720;9.166;2022-10-19T08:30:46;26.40;;;15.30;;
3847;SDS011;1939;48.720;9.166;2022-10-19T08:33:11;25.90;;;15.20;;
3847;SDS011;1939;48.720;9.166;2022-10-19T08:35:42;25.63;;;15.13;;
3847;SDS011;1939;48.720;9.166;2022-10-19T08:38:07;38.90;;;16.13;;
3847;SDS011;1939;48.720;9.166;2022-10-19T08:40:32;22.73;;;14.57;;
3847;SDS011;1939;48.720;9.166;2022-10-19T08:43:03;27.60;;;17.10;;
3847;SDS011;1939;48.720;9.166;2022-10-19T08:48:22;22.30;;;14.20;;
3847;SDS011;1939;48.720;9.166;2022-10-19T08:50:49;23.63;;;14.00;;
3847;SDS011;1939;48.720;9.166;2022-10-19T08:53:15;24.60;;;15.57;;
3847;SDS011;1939;48.720;9.166;2022-10-19T08:58:19;18.90;;;14.00;;
3847;SDS011;1939;48.720;9.166;2022-10-19T09:01:05;25.17;;;14.03;;
3847;SDS011;1939;48.720;9.166;2022-10-19T09:03:44;21.20;;;13.10;;
3847;SDS011;1939;48.720;9.166;2022-10-19T09:08:43;19.93;;;10.93;;
3847;SDS011;1939;48.720;9.166;2022-10-19T09:11:09;16.63;;;10.17;;
3847;SDS011;1939;48.720;9.166;2022-10-19T09:13:42;22.30;;;10.70;;
3847;SDS011;1939;48.720;9.166;2022-10-19T09:16:12;12.70;;;8.50;;
3847;SDS011;1939;48.720;9.166;2022-10-19T09:18:38;15.50;;;9.23;;
3847;SDS011;1939;48.720;9.166;2022-10-19T09:21:06;16.40;;;9.57;;
3847;SDS011;1939;48.720;9.166;2022-10-19T09:26:05;15.47;;;9.60;;
3847;SDS011;1939;48.720;9.166;2022-10-19T09:28:48;12.77;;;8.57;;
3847;SDS011;1939;48.720;9.166;2022-10-19T09:31:59;15.23;;;9.97;;
3847;SDS011;1939;48.720;9.166;2022-10-19T09:34:11;11.87;;;8.30;;
3847;SDS011;1939;48.720;9.166;2022-10-19T09:36:39;14.23;;;9.40;;
3847;SDS011;1939;48.720;9.166;2022-10-19T09:39:05;14.50;;;8.57;;
3847;SDS011;1939;48.720;9.166;2022-10-19T09:41:30;10.80;;;7.03;;
3847;SDS011;1939;48.720;9.166;2022-10-19T09:43:56;13.03;;;7.97;;
3847;SDS011;1939;48.720;9.166;2022-10-19T09:46:27;11.40;;;8.17;;
3847;SDS011;1939;48.720;9.166;2022-10-19T09:48:53;13.03;;;8.50;;
3847;SDS011;1939;48.720;9.166;2022-10-19T09:51:18;14.63;;;9.60;;
3847;SDS011;1939;48.720;9.166;2022-10-19T09:53:49;18.20;;;9.00;;
3847;SDS011;1939;48.720;9.166;2022-10-19T09:56:21;14.27;;;9.10;;
3847;SDS011;1939;48.720;9.166;2022-10-19T09:58:48;14.30;;;10.60;;
3847;SDS011;1939;48.720;9.166;2022-10-19T10:01:33;27.13;;;11.40;;
3847;SDS011;1939;48.720;9.166;2022-10-19T10:04:05;17.10;;;11.40;;
3847;SDS011;1939;48.720;9.166;2022-10-19T10:06:31;21.30;;;11.17;;
3847;SDS011;1939;48.720;9.166;2022-10-19T10:08:57;15.20;;;9.00;;
3847;SDS011;1939;48.720;9.166;2022-10-19T10:11:36;12.73;;;7.40;;
3847;SDS011;1939;48.720;9.166;2022-10-19T10:14:18;10.03;;;7.60;;
3847;SDS011;1939;48.720;9.166;2022-10-19T10:16:44;11.60;;;7.53;;
3847;SDS011;1939;48.720;9.166;2022-10-19T10:19:11;9.00;;;6.13;;
3847;SDS011;1939;48.720;9.166;2022-10-19T10:21:50;6.03;;;4.87;;
3847;SDS011;1939;48.720;9.166;2022-10-19T10:24:17;5.63;;;4.30;;
3847;SDS011;1939;48.720;9.166;2022-10-19T10:26:44;5.70;;;3.90;;
3847;SDS011;1939;48.720;9.166;2022-10-19T10:29:23;7.40;;;3.87;;
3847;SDS011;1939;48.720;9.166;2022-10-19T10:31:59;6.10;;;3.67;;
3847;SDS011;1939;48.720;9.166;2022-10-19T10:35:00;5.20;;;4.00;;
3847;SDS011;1939;48.720;9.166;2022-10-19T10:38:02;5.97;;;3.87;;
3847;SDS011;1939;48.720;9.166;2022-10-19T10:40:06;3.57;;;3.23;;
3847;SDS011;1939;48.720;9.166;2022-10-19T10:42:41;6.03;;;4.23;;
3847;SDS011;1939;48.720;9.166;2022-10-19T10:45:15;5.57;;;4.20;;
3847;SDS011;1939;48.720;9.166;2022-10-19T10:47:41;4.63;;;3.83;;
3847;SDS011;1939;48.720;9.166;2022-10-19T10:50:20;6.00;;;4.10;;
3847;SDS011;1939;48.720;9.166;2022-10-19T10:52:56;5.90;;;4.13;;
3847;SDS011;1939;48.720;9.166;2022-10-19T10:55:22;4.80;;;4.07;;
3847;SDS011;1939;48.720;9.166;2022-10-19T10:57:50;5.30;;;4.63;;
3847;SDS011;1939;48.720;9.166;2022-10-19T11:00:18;14.60;;;4.10;;
3847;SDS011;1939;48.720;9.166;2022-10-19T11:05:12;7.50;;;4.60;;
3847;SDS011;1939;48.720;9.166;2022-10-19T11:07:40;6.70;;;4.13;;
3847;SDS011;1939;48.720;9.166;2022-10-19T11:10:10;8.07;;;4.50;;
3847;SDS011;1939;48.720;9.166;2022-10-19T11:12:40;6.50;;;4.93;;
3847;SDS011;1939;48.720;9.166;2022-10-19T11:17:40;7.87;;;4.97;;
3847;SDS011;1939;48.720;9.166;2022-10-19T11:20:13;9.00;;;6.00;;
3847;SDS011;1939;48.720;9.166;2022-10-19T11:22:42;6.27;;;4.40;;
3847;SDS011;1939;48.720;9.166;2022-10-19T11:37:53;9.87;;;7.00;;
3847;SDS011;1939;48.720;9.166;2022-10-19T11:43:06;8.30;;;6.40;;
3847;SDS011;1939;48.720;9.166;2022-10-19T11:48:09;15.30;;;5.60;;
3847;SDS011;1939;48.720;9.166;2022-10-19T11:58:32;10.10;;;6.03;;
3847;SDS011;1939;48.720;9.166;2022-10-19T12:01:02;8.70;;;5.97;;
3847;SDS011;1939;48.720;9.166;2022-10-19T12:06:02;9.80;;;6.27;;
3847;SDS011;1939;48.720;9.166;2022-10-19T12:11:26;9.73;;;6.50;;
3847;SDS011;1939;48.720;9.166;2022-10-19T12:13:56;9.20;;;5.77;;
3847;SDS011;1939;48.720;9.166;2022-10-19T12:16:26;8.67;;;6.07;;
3847;SDS011;1939;48.720;9.166;2022-10-19T12:18:54;12.97;;;7.20;;
3847;SDS011;1939;48.720;9.166;2022-10-19T12:21:23;8.30;;;6.27;;
3847;SDS011;1939;48.720;9.166;2022-10-19T12:23:49;9.37;;;6.70;;
3847;SDS011;1939;48.720;9.166;2022-10-19T12:26:16;8.97;;;7.40;;
3847;SDS011;1939;48.720;9.166;2022-10-19T12:28:46;8.97;;;6.70;;
3847;SDS011;1939;48.720;9.166;2022-10-19T12:31:13;9.67;;;6.57;;
3847;SDS011;1939;48.720;9.166;2022-10-19T12:33:41;7.90;;;7.10;;
3847;SDS011;1939;48.720;9.166;2022-10-19T12:39:02;11.10;;;7.07;;
3847;SDS011;1939;48.720;9.166;2022-10-19T12:41:35;11.70;;;7.30;;
3847;SDS011;1939;48.720;9.166;2022-10-19T12:44:19;15.40;;;7.70;;
3847;SDS011;1939;48.720;9.166;2022-10-19T12:46:50;11.10;;;8.00;;
3847;SDS011;1939;48.720;9.166;2022-10-19T12:49:42;12.23;;;7.97;;
3847;SDS011;1939;48.720;9.166;2022-10-19T12:52:07;10.80;;;8.50;;
3847;SDS011;1939;48.720;9.166;2022-10-19T12:54:34;11.60;;;6.70;;
3847;SDS011;1939;48.720;9.166;2022-10-19T12:57:01;12.33;;;9.13;;
3847;SDS011;1939;48.720;9.166;2022-10-19T12:59:31;8.80;;;7.00;;
3847;SDS011;1939;48.720;9.166;2022-10-19T13:01:57;9.43;;;6.97;;
3847;SDS011;1939;48.720;9.166;2022-10-19T13:04:30;12.70;;;7.03;;
3847;SDS011;1939;48.720;9.166;2022-10-19T13:25:27;11.60;;;7.30;;
3847;SDS011;1939;48.720;9.166;2022-10-19T13:43:19;13.10;;;6.60;;
3847;SDS011;1939;48.720;9.166;2022-10-19T13:48:23;11.50;;;6.67;;
3847;SDS011;1939;48.720;9.166;2022-10-19T13:50:57;8.47;;;5.70;;
3847;SDS011;1939;48.720;9.166;2022-10-19T13:53:25;7.07;;;5.80;;
3847;SDS011;1939;48.720;9.166;2022-10-19T13:56:07;9.33;;;6.47;;
3847;SDS011;1939;48.720;9.166;2022-10-19T14:03:34;8.37;;;6.27;;
3847;SDS011;1939;48.720;9.166;2022-10-19T14:06:13;11.83;;;6.43;;
3847;SDS011;1939;48.720;9.166;2022-10-19T14:08:43;6.10;;;5.50;;
3847;SDS011;1939;48.720;9.166;2022-10-19T14:13:40;9.13;;;5.47;;
3847;SDS011;1939;48.720;9.166;2022-10-19T14:16:06;6.57;;;5.50;;
3847;SDS011;1939;48.720;9.166;2022-10-19T14:18:34;8.30;;;5.30;;
3847;SDS011;1939;48.720;9.166;2022-10-19T14:21:01;9.73;;;4.93;;
3847;SDS011;1939;48.720;9.166;2022-10-19T14:23:27;7.23;;;5.33;;
3847;SDS011;1939;48.720;9.166;2022-10-19T14:25:54;8.90;;;6.03;;
3847;SDS011;1939;48.720;9.166;2022-10-19T14:28:21;6.53;;;5.50;;
3847;SDS011;1939;48.720;9.166;2022-10-19T14:30:58;14.37;;;5.50;;
3847;SDS011;1939;48.720;9.166;2022-10-19T14:33:24;9.13;;;6.33;;
3847;SDS011;1939;48.720;9.166;2022-10-19T14:35:50;9.40;;;6.50;;
3847;SDS011;1939;48.720;9.166;2022-10-19T14:38:17;7.00;;;5.90;;
3847;SDS011;1939;48.720;9.166;2022-10-19T14:40:43;7.00;;;5.50;;
3847;SDS011;1939;48.720;9.166;2022-10-19T14:43:22;11.80;;;6.20;;
3847;SDS011;1939;48.720;9.166;2022-10-19T14:48:32;6.50;;;4.93;;
3847;SDS011;1939;48.720;9.166;2022-10-19T14:50:58;7.10;;;5.70;;
3847;SDS011;1939;48.720;9.166;2022-10-19T14:53:31;11.33;;;6.17;;
3847;SDS011;1939;48.720;9.166;2022-10-19T14:56:05;6.57;;;5.23;;
3847;SDS011;1939;48.720;9.166;2022-10-19T14:58:34;6.23;;;5.27;;
3847;SDS011;1939;48.720;9.166;2022-10-19T15:01:01;5.90;;;5.00;;
3847;SDS011;1939;48.720;9.166;2022-10-19T15:03:26;9.03;;;6.43;;
3847;SDS011;1939;48.720;9.166;2022-10-19T15:05:57;6.67;;;5.43;;
3847;SDS011;1939;48.720;9.166;2022-10-19T15:08:40;7.53;;;4.80;;
3847;SDS011;1939;48.720;9.166;2022-10-19T15:11:08;8.23;;;5.13;;
3847;SDS011;1939;48.720;9.166;2022-10-19T15:13:47;8.30;;;6.00;;
3847;SDS011;1939;48.720;9.166;2022-10-19T15:16:29;23.70;;;7.60;;
3847;SDS011;1939;48.720;9.166;2022-10-19T15:18:55;17.80;;;7.00;;
3847;SDS011;1939;48.720;9.166;2022-10-19T15:21:20;9.13;;;6.13;;
3847;SDS011;1939;48.720;9.166;2022-10-19T15:23:49;15.17;;;6.73;;
3847;SDS011;1939;48.720;9.166;2022-10-19T15:26:19;15.43;;;8.43;;
3847;SDS011;1939;48.720;9.166;2022-10-19T15:28:46;10.40;;;7.10;;
3847;SDS011;1939;48.720;9.166;2022-10-19T15:33:49;9.10;;;6.30;;
3847;SDS011;1939;48.720;9.166;2022-10-19T15:36:15;10.57;;;7.50;;
3847;SDS011;1939;48.720;9.166;2022-10-19T15:38:44;8.77;;;7.10;;
3847;SDS011;1939;48.720;9.166;2022-10-19T15:41:14;9.50;;;6.87;;
3847;SDS011;1939;48.720;9.166;2022-10-19T15:43:44;9.97;;;6.70;;
3847;SDS011;1939;48.720;9.166;2022-10-19T15:48:46;8.50;;;6.00;;
3847;SDS011;1939;48.720;9.166;2022-10-19T15:54:11;13.45;;;6.72;;
3847;SDS011;1939;48.720;9.166;2022-10-19T15:56:36;11.30;;;7.30;;
3847;SDS011;1939;48.720;9.166;2022-10-19T15:59:03;13.07;;;6.93;;
3847;SDS011;1939;48.720;9.166;2022-10-19T16:01:29;7.07;;;5.70;;
3847;SDS011;1939;48.720;9.166;2022-10-19T16:03:55;9.87;;;7.43;;
3847;SDS011;1939;48.720;9.166;2022-10-19T16:06:21;11.83;;;6.57;;
3847;SDS011;1939;48.720;9.166;2022-10-19T16:08:47;9.80;;;6.93;;
3847;SDS011;1939;48.720;9.166;2022-10-19T16:11:15;10.30;;;6.50;;
3847;SDS011;1939;48.720;9.166;2022-10-19T16:13:40;11.27;;;7.10;;
3847;SDS011;1939;48.720;9.166;2022-10-19T16:16:06;11.60;;;6.30;;
3847;SDS011;1939;48.720;9.166;2022-10-19T16:18:45;9.13;;;6.67;;
3847;SDS011;1939;48.720;9.166;2022-10-19T16:21:11;9.82;;;6.35;;
3847;SDS011;1939;48.720;9.166;2022-10-19T16:23:36;18.90;;;6.57;;
3847;SDS011;1939;48.720;9.166;2022-10-19T16:26:03;9.30;;;6.50;;
3847;SDS011;1939;48.720;9.166;2022-10-19T16:28:28;18.17;;;7.07;;
3847;SDS011;1939;48.720;9.166;2022-10-19T16:30:54;9.30;;;6.20;;
3847;SDS011;1939;48.720;9.166;2022-10-19T16:33:19;12.33;;;7.73;;
3847;SDS011;1939;48.720;9.166;2022-10-19T16:35:44;9.43;;;6.03;;
3847;SDS011;1939;48.720;9.166;2022-10-19T16:38:13;10.07;;;6.93;;
3847;SDS011;1939;48.720;9.166;2022-10-19T16:40:38;16.27;;;7.30;;
3847;SDS011;1939;48.720;9.166;2022-10-19T16:43:03;12.97;;;7.30;;
3847;SDS011;1939;48.720;9.166;2022-10-19T16:45:29;11.60;;;7.90;;
3847;SDS011;1939;48.720;9.166;2022-10-19T16:47:54;12.30;;;6.73;;
3847;SDS011;1939;48.720;9.166;2022-10-19T16:50:20;15.23;;;8.13;;
3847;SDS011;1939;48.720;9.166;2022-10-19T16:52:45;12.33;;;7.07;;
3847;SDS011;1939;48.720;9.166;2022-10-19T16:55:10;11.57;;;7.70;;
3847;SDS011;1939;48.720;9.166;2022-10-19T16:57:36;11.67;;;7.70;;
3847;SDS011;1939;48.720;9.166;2022-10-19T17:00:02;12.70;;;9.13;;
3847;SDS011;1939;48.720;9.166;2022-10-19T17:02:27;11.20;;;7.30;;
3847;SDS011;1939;48.720;9.166;2022-10-19T17:04:53;14.50;;;9.43;;
3847;SDS011;1939;48.720;9.166;2022-10-19T17:07:18;12.40;;;8.30;;
3847;SDS011;1939;48.720;9.166;2022-10-19T17:09:43;13.87;;;9.20;;
3847;SDS011;1939;48.720;9.166;2022-10-19T17:12:09;11.43;;;8.23;;